ilmateenistus.ee keskkonnaagentuur.ee
EETN Tallinn
FTEO31 EETN 211100
TAF EETN 211100Z 2112/2212 19014G24KT 9999 SCT045 TEMPO 2112/2119
    FEW035CB PROB30 TEMPO 2112/2116 TSRA BECMG 2117/2119 VRB02KT BECMG
    2205/2207 17009KT BECMG 2210/2212 SCT030CB=

METAR EETN 211220Z 21014KT CAVOK 32/16 Q1013 TEMPO 20017G27KT=
Tallinn
EEKA Kärdla
FCEO32 EETN 211200
TAF EEKA 211200Z 2113/2119 19012KT CAVOK PROB30 TEMPO 2113/2117
    SCT035CB BECMG 2117/2119 VRB02KT=

METAR EEKA 211220Z 15012KT 120V190 CAVOK 31/18 Q1012=
Kärdla
EEKE Kuressaare
METAR EEKE 211220Z 16011KT CAVOK 25/20 Q1012=
Kuressaare
EEPU Pärnu
METAR EEPU 211220Z NIL=
Pärnu
EETU Tartu
METAR EETU 211220Z 18009KT 140V210 CAVOK 32/18 Q1014=
Tartu
EEEI Ämari
METAR EEEI 211150Z 19014KT 150V220 CAVOK 32/18 Q1013 NOSIG=
Ämari